ヤクーツク の空港の天気 - METARとTAF

ヤクーツク空港 ( UEEE / YKS ) - ロシア ヤクーツク
飛行場実況気象(Metar)
観測時間08/05 03:00 YAKT (08/04 18:00 UTC)
風向・風速北西 3m/s
視程10km以上
天気現象
なし
気温12℃
湿度71%
気圧1006hPa
METARUEEE 041800Z 32003MPS CAVOK 12/07 Q1006 R23L/09//70 NOSIG RMK QFE745
過去の天気等 Google飛行場航空写真 Wunderground天気予報

過去48時間のMETAR

飛行場予報(TAF)
発表時間: 8/05 02:00 YAKT (8/04 17:00 UTC)
予報対象時間: 5日3時 YAKT ~ 6日9時 YAKT
風向・風速西北西 3m/s
視程5000m
天気現象
なし
5日3時 YAKT ~ 5日18時 YAKT に一時的に
視程2100m
天気現象
5日10時 YAKT ~ 5日12時 YAKT に徐々に
風向・風速東北東 5m/s 瞬間風速 10m/s
TAF UEEE 041700Z 0418/0524 30003MPS 5000 FU NSC TX27/0506Z TN10/0418Z
TEMPO 0418/0509 2100 FU
BECMG 0501/0503 06005G10MPS